Huvudsida
METAR-TAF:

METAR-TAF

Flygplatser :

Edmundo Carvajal Airport

Macas, Ecuador

latitud: 02-17-57-S, longitud: 078-07-15-W, höjd: 1052 m

Aktuellt väderrapport

Denna rapport gjordes för 12 minuter sedan, klockan 13:00 UTC
Vind 1 kt från ost
Temperatur 20°C
Fuktighet 100%
Tryck 1020 hPa
Sikt: 8000 m
Spridda moln på en höjd av 1000 ft
Spridda moln på en höjd av 4000 ft
Brutna moln på en höjd av 10000 ft
dimbankar

METAR: SEMC 201300Z 10001KT 8000 BCFG SCT010 SCT040 BKN100 20/20 Q1020 RMK A3012

Tid: 08:12 (13:12 UTC)


TAF: saknas

Aktuella väderrapporter och prognoser från 4000 flygplatser (METAR- och TAF-rapporter).

De tillgängliga stationerna syns som gula och röda prickar på kartan.

För musen över prickarna för att se namnen på stationerna.

Klicka sedan för att få väderrapporter och prognoser.

För att ändra kartan: Klicka på de gröna knapparna med ett svart kors på för att zooma in; den gröna knappen med ett streck på för att zooma ut; eller på de gröna pilarna för angränsande kartor.


METAR-TAF: